createdAt,value
2022-08-20T00:00:21.428Z,72.43
2022-08-20T00:03:32.597Z,72.29
2022-08-20T00:06:16.919Z,72.24
2022-08-20T00:08:53.385Z,72.37
2022-08-20T00:11:53.808Z,72.62
2022-08-20T00:14:21.412Z,72.50
2022-08-20T00:16:49.800Z,72.68
2022-08-20T00:19:18.042Z,72.59
2022-08-20T00:21:45.287Z,72.50
2022-08-20T00:24:14.419Z,72.62
2022-08-20T00:26:52.602Z,72.71
2022-08-20T00:29:22.523Z,72.63
2022-08-20T00:31:53.198Z,72.64
2022-08-20T00:34:20.298Z,72.61
2022-08-20T00:36:48.281Z,72.59
2022-08-20T00:39:17.396Z,72.46
2022-08-20T00:41:47.333Z,72.53
2022-08-20T00:44:27.030Z,72.47
2022-08-20T00:46:55.807Z,72.63
2022-08-20T00:49:27.524Z,72.61
2022-08-20T00:52:17.095Z,72.64
2022-08-20T00:55:00.162Z,72.73
2022-08-20T00:57:43.812Z,72.73
2022-08-20T01:00:28.956Z,72.71
2022-08-20T01:02:58.612Z,72.69
2022-08-20T01:05:29.485Z,72.66
2022-08-20T01:07:58.014Z,72.69
2022-08-20T01:10:34.528Z,72.81
2022-08-20T01:13:08.011Z,72.75
2022-08-20T01:15:43.005Z,72.76
2022-08-20T01:18:16.495Z,72.84
2022-08-20T01:20:48.370Z,72.86
2022-08-20T01:24:00.415Z,72.88
2022-08-20T01:26:37.576Z,73.06
2022-08-20T01:29:10.750Z,72.84
2022-08-20T01:31:39.982Z,72.91
2022-08-20T01:34:12.403Z,72.90
2022-08-20T01:36:47.954Z,72.91
2022-08-20T01:39:20.210Z,72.77
2022-08-20T01:42:02.733Z,72.77
2022-08-20T01:44:31.137Z,72.72
2022-08-20T01:47:28.255Z,72.67
2022-08-20T01:50:02.566Z,72.69
2022-08-20T01:52:36.477Z,72.84
2022-08-20T01:55:04.987Z,72.85
2022-08-20T01:57:34.532Z,72.81
2022-08-20T02:00:01.651Z,72.90
2022-08-20T02:02:28.625Z,72.92
2022-08-20T02:05:00.272Z,72.93
2022-08-20T02:07:28.298Z,72.95
2022-08-20T02:09:55.284Z,72.96
2022-08-20T02:12:22.275Z,73.08
2022-08-20T02:14:52.797Z,72.96
2022-08-20T02:17:22.917Z,73.06
2022-08-20T02:20:03.245Z,73.02
2022-08-20T02:22:45.775Z,73.05
2022-08-20T02:25:19.054Z,72.90
2022-08-20T02:27:48.338Z,72.89
2022-08-20T02:30:28.257Z,72.99
2022-08-20T02:32:57.926Z,73.02
2022-08-20T02:35:26.171Z,73.17
2022-08-20T02:37:54.786Z,73.02
2022-08-20T02:40:30.540Z,73.19
2022-08-20T02:43:01.097Z,72.94
2022-08-20T02:45:36.408Z,72.87
2022-08-20T02:48:05.027Z,72.73
2022-08-20T02:50:32.124Z,72.82
2022-08-20T02:52:59.107Z,72.81
2022-08-20T02:55:27.849Z,72.82
2022-08-20T02:57:58.534Z,72.73
2022-08-20T03:00:32.150Z,72.85
2022-08-20T03:03:10.287Z,72.67
2022-08-20T03:05:41.083Z,72.76
2022-08-20T03:08:10.521Z,72.74
2022-08-20T03:10:39.443Z,72.84
2022-08-20T03:13:11.898Z,72.85
2022-08-20T03:15:58.824Z,72.97
2022-08-20T03:18:31.246Z,73.01
2022-08-20T03:20:58.408Z,72.83
2022-08-20T03:23:25.411Z,73.00
2022-08-20T03:25:52.541Z,72.90
2022-08-20T03:28:19.531Z,72.87
2022-08-20T03:30:46.955Z,72.79
2022-08-20T03:33:15.698Z,72.82
2022-08-20T03:35:42.987Z,72.79
2022-08-20T03:38:12.074Z,72.80
2022-08-20T03:40:41.296Z,72.77
2022-08-20T03:43:09.380Z,72.73
2022-08-20T03:45:38.335Z,72.87
2022-08-20T03:48:08.238Z,72.86
2022-08-20T03:50:35.367Z,72.87
2022-08-20T03:53:03.822Z,72.90
2022-08-20T03:55:31.691Z,72.87
2022-08-20T03:58:02.551Z,72.81
2022-08-20T04:00:32.270Z,72.97
2022-08-20T04:03:00.309Z,72.87
2022-08-20T04:05:29.284Z,72.94
2022-08-20T04:08:03.150Z,72.86
2022-08-20T04:10:31.693Z,72.86
2022-08-20T04:12:58.794Z,72.95
2022-08-20T04:15:26.798Z,72.90
2022-08-20T04:17:54.092Z,72.94
2022-08-20T04:20:25.453Z,73.00
2022-08-20T04:22:58.519Z,73.14
2022-08-20T04:25:35.784Z,73.09
2022-08-20T04:28:06.557Z,73.05
2022-08-20T04:30:34.002Z,72.95
2022-08-20T04:33:01.169Z,73.09
2022-08-20T04:35:29.693Z,73.06
2022-08-20T04:38:09.546Z,73.03
2022-08-20T04:40:55.402Z,73.08
2022-08-20T04:43:37.772Z,73.20
2022-08-20T04:46:11.047Z,72.98
2022-08-20T04:48:38.927Z,72.97
2022-08-20T04:51:08.822Z,73.03
2022-08-20T04:53:36.208Z,73.08
2022-08-20T04:56:04.018Z,73.21
2022-08-20T04:58:34.490Z,73.24
2022-08-20T05:01:07.856Z,73.19
2022-08-20T05:03:39.466Z,73.16
2022-08-20T05:06:09.182Z,73.22
2022-08-20T05:08:38.090Z,73.26
2022-08-20T05:11:30.050Z,73.30
2022-08-20T05:13:53.930Z,73.34
2022-08-20T05:16:21.084Z,73.26
2022-08-20T05:18:50.548Z,73.26
2022-08-20T05:21:21.004Z,73.27
2022-08-20T05:23:48.717Z,73.26
2022-08-20T05:26:16.106Z,73.15
2022-08-20T05:28:51.287Z,73.13
2022-08-20T05:31:32.604Z,73.12
2022-08-20T05:34:09.066Z,73.07
2022-08-20T05:36:41.454Z,73.12
2022-08-20T05:39:09.904Z,73.16
2022-08-20T05:41:38.484Z,73.13
2022-08-20T05:44:10.258Z,73.20
2022-08-20T05:46:41.071Z,73.13
2022-08-20T05:49:10.351Z,73.27
2022-08-20T05:51:37.569Z,73.06
2022-08-20T05:54:06.501Z,73.19
2022-08-20T05:56:35.487Z,73.30
2022-08-20T05:59:05.180Z,73.26
2022-08-20T06:01:34.739Z,73.25
2022-08-20T06:04:20.794Z,73.18
2022-08-20T06:06:48.269Z,73.13
2022-08-20T06:09:31.898Z,73.01
2022-08-20T06:12:02.473Z,73.05
2022-08-20T06:14:30.783Z,73.07
2022-08-20T06:17:04.620Z,73.01
2022-08-20T06:19:33.466Z,73.11
2022-08-20T06:22:01.695Z,72.92
2022-08-20T06:24:28.758Z,72.98
2022-08-20T06:27:00.586Z,73.07
2022-08-20T06:29:29.697Z,72.95
2022-08-20T06:31:56.878Z,72.84
2022-08-20T06:34:27.696Z,72.84
2022-08-20T06:36:56.733Z,73.10
2022-08-20T06:39:25.015Z,72.95
2022-08-20T06:41:52.258Z,73.05
2022-08-20T06:44:20.236Z,73.02
2022-08-20T06:46:47.207Z,73.07
2022-08-20T06:49:14.110Z,73.01
2022-08-20T06:51:41.428Z,72.97
2022-08-20T06:54:08.763Z,73.11
2022-08-20T06:56:35.786Z,73.29
2022-08-20T06:59:02.938Z,73.21
2022-08-20T07:01:29.923Z,73.24
2022-08-20T07:03:59.737Z,73.28
2022-08-20T07:06:27.018Z,73.15
2022-08-20T07:08:55.405Z,73.04
2022-08-20T07:11:29.647Z,73.16
2022-08-20T07:13:58.255Z,72.98
2022-08-20T07:16:25.742Z,73.16
2022-08-20T07:18:53.045Z,73.30
2022-08-20T07:21:20.122Z,73.16
2022-08-20T07:23:48.960Z,73.12
2022-08-20T07:26:21.902Z,72.79
2022-08-20T07:28:49.198Z,72.82
2022-08-20T07:31:35.538Z,72.83
2022-08-20T07:34:04.719Z,72.82
2022-08-20T07:36:32.077Z,72.72
2022-08-20T07:38:59.369Z,72.61
2022-08-20T07:41:33.632Z,72.79
2022-08-20T07:44:00.668Z,72.67
2022-08-20T07:46:31.329Z,72.47
2022-08-20T07:48:59.130Z,72.74
2022-08-20T07:51:26.470Z,72.82
2022-08-20T07:53:54.194Z,72.70
2022-08-20T07:56:24.591Z,72.75
2022-08-20T07:58:56.537Z,72.77
2022-08-20T08:01:29.389Z,72.40
2022-08-20T08:04:06.442Z,72.57
2022-08-20T08:06:35.195Z,72.37
2022-08-20T08:09:15.224Z,72.31
2022-08-20T08:11:52.046Z,72.28
2022-08-20T08:14:36.186Z,72.35
2022-08-20T08:17:07.271Z,72.01
2022-08-20T08:23:46.677Z,71.47
2022-08-20T08:26:44.617Z,71.40
2022-08-20T08:29:49.768Z,71.57
2022-08-20T08:33:00.562Z,71.52
2022-08-20T08:35:36.637Z,71.38
2022-08-20T08:38:06.176Z,71.11
2022-08-20T08:40:59.197Z,71.12
2022-08-20T08:43:35.205Z,70.79
2022-08-20T08:46:19.605Z,71.16
2022-08-20T08:49:02.453Z,70.78
2022-08-20T08:51:47.522Z,70.63
2022-08-20T08:54:19.572Z,70.69
2022-08-20T08:56:49.797Z,70.86
2022-08-20T08:59:23.413Z,70.91
2022-08-20T09:01:59.006Z,70.86
2022-08-20T09:08:45.062Z,70.93
2022-08-20T09:12:13.237Z,70.63
2022-08-20T09:15:19.272Z,70.75
2022-08-20T09:17:55.756Z,70.50
2022-08-20T09:20:32.748Z,70.80
2022-08-20T09:23:08.180Z,70.63
2022-08-20T09:25:39.853Z,70.82
2022-08-20T09:36:32.465Z,70.61
2022-08-20T09:39:32.673Z,70.72
2022-08-20T09:43:23.849Z,70.44
2022-08-20T09:45:29.588Z,70.40
2022-08-20T09:48:10.326Z,70.55
2022-08-20T09:50:44.641Z,70.49
2022-08-20T09:55:25.681Z,70.30
2022-08-20T10:00:11.674Z,70.08
2022-08-20T10:03:07.127Z,70.17
2022-08-20T10:06:28.177Z,69.96
2022-08-20T10:09:49.474Z,70.24
2022-08-20T10:16:27.542Z,70.28
2022-08-20T10:21:27.571Z,70.26
2022-08-20T10:23:46.007Z,70.36
2022-08-20T10:26:59.385Z,70.59
2022-08-20T10:34:04.389Z,70.70
2022-08-20T10:37:20.489Z,70.89
2022-08-20T10:40:11.214Z,70.76
2022-08-20T10:43:16.837Z,70.61
2022-08-20T10:45:58.968Z,70.71
2022-08-20T10:48:59.387Z,70.73
2022-08-20T10:51:32.302Z,70.73
2022-08-20T10:54:00.227Z,70.84
2022-08-20T10:56:27.897Z,70.93
2022-08-20T10:58:54.799Z,70.96
2022-08-20T11:01:31.428Z,71.12
2022-08-20T11:04:00.217Z,71.16
2022-08-20T11:06:27.271Z,70.80
2022-08-20T11:08:54.232Z,70.94
2022-08-20T11:11:24.297Z,71.03
2022-08-20T11:13:51.329Z,71.01
2022-08-20T11:16:18.442Z,71.03
2022-08-20T11:18:47.701Z,70.90
2022-08-20T11:21:14.913Z,70.77
2022-08-20T11:23:42.498Z,70.94
2022-08-20T11:26:22.923Z,70.92
2022-08-20T11:28:50.506Z,71.18
2022-08-20T11:31:17.658Z,71.16
2022-08-20T11:33:44.590Z,71.09
2022-08-20T11:36:11.604Z,70.99
2022-08-20T11:38:38.533Z,71.01
2022-08-20T11:41:05.647Z,70.79
2022-08-20T11:43:32.685Z,70.60
2022-08-20T11:45:59.663Z,70.54
2022-08-20T11:48:26.895Z,70.75
2022-08-20T11:50:54.120Z,70.74
2022-08-20T11:53:21.572Z,70.41
2022-08-20T11:55:49.749Z,70.57
2022-08-20T11:58:17.233Z,70.24
2022-08-20T12:00:44.248Z,70.35
2022-08-20T12:03:11.690Z,70.31
2022-08-20T12:05:42.516Z,70.16
2022-08-20T12:08:10.670Z,70.14
2022-08-20T12:10:54.832Z,70.10
2022-08-20T12:13:21.819Z,69.75
2022-08-20T12:15:58.225Z,69.65
2022-08-20T12:18:27.083Z,69.57
2022-08-20T12:20:54.578Z,69.90
2022-08-20T12:23:21.661Z,69.68
2022-08-20T12:25:49.301Z,69.58
2022-08-20T12:28:16.424Z,69.60
2022-08-20T12:30:44.109Z,69.33
2022-08-20T12:33:11.218Z,69.38
2022-08-20T12:35:38.134Z,69.72
2022-08-20T12:38:06.104Z,69.84
2022-08-20T12:40:34.941Z,69.95
2022-08-20T12:43:03.526Z,70.24
2022-08-20T12:45:32.263Z,70.60
2022-08-20T12:48:12.235Z,70.82
2022-08-20T12:50:41.921Z,70.84
2022-08-20T12:53:08.897Z,70.93
2022-08-20T12:55:35.969Z,70.97
2022-08-20T12:58:07.249Z,71.03
2022-08-20T13:00:41.058Z,71.08
2022-08-20T13:03:12.096Z,71.40
2022-08-20T13:05:40.777Z,71.28
2022-08-20T13:08:11.656Z,71.33
2022-08-20T13:10:43.738Z,71.52
2022-08-20T13:13:12.955Z,71.82
2022-08-20T13:15:40.156Z,71.97
2022-08-20T13:18:07.758Z,71.96
2022-08-20T13:20:36.216Z,72.12
2022-08-20T13:23:05.098Z,72.27
2022-08-20T13:25:32.976Z,72.15
2022-08-20T13:28:04.027Z,72.12
2022-08-20T13:30:34.540Z,72.19
2022-08-20T13:33:01.642Z,72.18
2022-08-20T13:35:29.532Z,72.47
2022-08-20T13:37:56.534Z,72.47
2022-08-20T13:40:23.900Z,72.25
2022-08-20T13:42:50.941Z,72.21
2022-08-20T13:45:17.958Z,72.33
2022-08-20T13:47:45.345Z,72.40
2022-08-20T13:50:17.138Z,72.62
2022-08-20T13:52:44.931Z,72.53
2022-08-20T13:55:17.245Z,72.47
2022-08-20T13:57:44.758Z,72.19
2022-08-20T14:00:19.470Z,72.15
2022-08-20T14:02:49.658Z,72.34
2022-08-20T14:05:18.963Z,72.44
2022-08-20T14:08:36.929Z,72.36
2022-08-20T14:56:53.078Z,74.31
2022-08-20T15:00:29.794Z,74.65
2022-08-20T15:12:53.251Z,75.40
2022-08-20T15:15:20.945Z,75.19
2022-08-20T15:17:54.803Z,75.22
2022-08-20T15:20:25.350Z,75.59
2022-08-20T15:22:52.696Z,75.47
2022-08-20T15:25:23.352Z,75.67
2022-08-20T15:27:50.678Z,75.77
2022-08-20T15:30:22.048Z,75.92
2022-08-20T15:32:54.592Z,75.97
2022-08-20T15:35:26.664Z,76.03
2022-08-20T15:37:57.560Z,75.81
2022-08-20T15:40:28.651Z,75.92
2022-08-20T15:42:57.725Z,76.02
2022-08-20T15:45:25.796Z,76.28
2022-08-20T15:47:54.394Z,76.17
2022-08-20T15:50:42.559Z,76.22
2022-08-20T15:53:13.833Z,76.32
2022-08-20T15:55:57.819Z,76.18
2022-08-20T15:58:37.157Z,76.35
2022-08-20T16:01:36.370Z,76.08
2022-08-20T16:04:09.144Z,76.05
2022-08-20T16:06:37.029Z,75.90
2022-08-20T16:09:28.463Z,75.98
2022-08-20T16:12:09.791Z,75.81
2022-08-20T16:14:40.575Z,75.65
2022-08-20T16:17:29.870Z,75.56
2022-08-20T16:20:24.303Z,75.44
2022-08-20T16:22:53.204Z,75.31
2022-08-20T16:25:22.463Z,75.28
2022-08-20T16:27:50.635Z,75.46
2022-08-20T16:30:46.568Z,75.55
2022-08-20T16:33:24.896Z,75.74
2022-08-20T16:36:07.297Z,75.99
2022-08-20T16:38:51.563Z,76.35
2022-08-20T16:41:28.725Z,76.25
2022-08-20T16:44:04.558Z,76.14
2022-08-20T16:46:48.667Z,76.20
2022-08-20T16:49:16.040Z,75.84
2022-08-20T16:51:51.702Z,75.87
2022-08-20T16:54:28.625Z,75.83
2022-08-20T16:57:07.448Z,75.85
2022-08-20T17:00:15.009Z,75.83
2022-08-20T17:02:56.094Z,75.98
2022-08-20T17:05:26.455Z,75.83
2022-08-20T17:08:01.787Z,75.90
2022-08-20T17:10:36.993Z,75.52
2022-08-20T17:13:13.327Z,75.65
2022-08-20T17:15:43.578Z,75.30
2022-08-20T17:18:21.925Z,75.54
2022-08-20T17:20:49.354Z,75.75
2022-08-20T17:23:18.744Z,75.81
2022-08-20T17:25:56.485Z,75.69
2022-08-20T17:28:35.506Z,75.64
2022-08-20T17:31:03.023Z,75.49
2022-08-20T17:33:34.948Z,75.94
2022-08-20T17:36:11.310Z,76.04
2022-08-20T17:39:00.801Z,76.15
2022-08-20T17:41:46.205Z,76.27
2022-08-20T17:44:42.417Z,76.33
2022-08-20T17:47:17.908Z,76.47
2022-08-20T17:50:02.389Z,76.30
2022-08-20T17:52:37.882Z,76.72
2022-08-20T17:55:08.088Z,76.81
2022-08-20T17:57:39.785Z,76.76
2022-08-20T18:00:14.588Z,76.85
2022-08-20T18:02:44.438Z,76.89
2022-08-20T18:05:18.848Z,77.12
2022-08-20T18:08:18.118Z,76.96
2022-08-20T18:11:23.935Z,76.67
2022-08-20T18:14:29.018Z,76.51
2022-08-20T18:17:23.187Z,76.61
2022-08-20T18:19:53.456Z,76.49
2022-08-20T18:22:30.346Z,76.90
2022-08-20T18:25:28.164Z,76.53
2022-08-20T18:28:04.395Z,76.34
2022-08-20T18:30:33.785Z,76.26
2022-08-20T18:33:06.015Z,75.93
2022-08-20T18:35:37.596Z,75.91
2022-08-20T18:38:22.957Z,75.97
2022-08-20T18:40:54.908Z,76.13
2022-08-20T18:43:36.112Z,75.59
2022-08-20T18:46:20.928Z,75.68
2022-08-20T18:48:58.365Z,75.97
2022-08-20T18:51:49.228Z,76.00
2022-08-20T18:54:30.419Z,75.98
2022-08-20T18:57:20.555Z,75.32
2022-08-20T19:00:00.898Z,75.38
2022-08-20T19:03:21.667Z,75.34
2022-08-20T19:06:10.954Z,75.46
2022-08-20T19:31:12.994Z,74.94
2022-08-20T19:33:44.141Z,74.76
2022-08-20T19:45:00.840Z,74.70
2022-08-20T19:48:08.051Z,74.65
2022-08-20T19:51:00.655Z,74.40
2022-08-20T19:53:34.238Z,74.41
2022-08-20T19:56:36.075Z,74.30
2022-08-20T19:59:11.751Z,74.15
2022-08-20T20:01:48.602Z,74.11
2022-08-20T20:04:19.678Z,74.05
2022-08-20T20:06:51.488Z,74.08
2022-08-20T20:09:28.625Z,74.09
2022-08-20T20:12:02.294Z,73.99
2022-08-20T20:14:42.413Z,73.94
2022-08-20T20:17:14.783Z,73.94
2022-08-20T20:19:48.963Z,74.10
2022-08-20T20:22:50.018Z,73.84
2022-08-20T20:25:33.345Z,73.71
2022-08-20T20:28:28.419Z,73.91
2022-08-20T20:31:49.291Z,74.01
2022-08-20T20:34:23.539Z,73.92
2022-08-20T20:37:41.585Z,74.02
2022-08-20T20:40:19.693Z,74.08
2022-08-20T20:43:04.476Z,73.95
2022-08-20T20:45:39.041Z,74.02
2022-08-20T20:48:19.428Z,74.10
2022-08-20T20:50:50.688Z,74.00
2022-08-20T20:53:32.491Z,73.84
2022-08-20T20:56:31.558Z,73.64
2022-08-20T20:59:05.930Z,73.64
2022-08-20T21:01:50.193Z,73.81
2022-08-20T21:05:05.105Z,73.68
2022-08-20T21:08:08.033Z,73.93
2022-08-20T21:10:31.813Z,73.78
2022-08-20T21:13:00.519Z,73.65
2022-08-20T21:15:33.201Z,73.61
2022-08-20T21:18:07.678Z,73.62
2022-08-20T21:20:36.926Z,73.37
2022-08-20T21:23:04.946Z,73.61
2022-08-20T21:25:33.801Z,73.55
2022-08-20T21:28:05.894Z,73.71
2022-08-20T21:34:37.155Z,73.77
2022-08-20T21:42:29.322Z,74.10
2022-08-20T21:47:05.660Z,74.10
2022-08-20T21:48:58.330Z,74.35
2022-08-20T22:58:44.126Z,75.08
2022-08-20T23:01:13.887Z,75.09
2022-08-20T23:04:19.558Z,75.14
2022-08-20T23:07:03.782Z,75.32
2022-08-20T23:09:30.675Z,75.39
2022-08-20T23:11:58.333Z,75.46
2022-08-20T23:14:26.880Z,75.53
2022-08-20T23:17:07.324Z,75.57
2022-08-20T23:19:38.724Z,75.63
2022-08-20T23:22:06.741Z,75.60
2022-08-20T23:24:34.631Z,75.66
2022-08-20T23:27:02.062Z,75.48
2022-08-20T23:29:29.510Z,75.50
2022-08-20T23:31:56.931Z,75.61
2022-08-20T23:34:25.265Z,75.66
2022-08-20T23:36:53.724Z,75.55
2022-08-20T23:39:21.278Z,75.52
2022-08-20T23:41:48.383Z,75.71
2022-08-20T23:44:25.112Z,75.68
2022-08-20T23:47:01.657Z,75.92
2022-08-20T23:49:30.243Z,75.69
2022-08-20T23:51:59.980Z,75.96
2022-08-20T23:54:32.324Z,75.98
2022-08-20T23:56:59.881Z,75.97
2022-08-20T23:59:26.913Z,76.08
